sensor_id;sensor_type;location;lat;lon;timestamp;pressure;altitude;pressure_sealevel;temperature;humidity
31585;BME280;18191;51.288;12.390;2023-04-05T00:01:17;49036.69;;;-144.47;72.07
31585;BME280;18191;51.288;12.390;2023-04-05T00:06:09;48982.97;;;-144.47;72.11
31585;BME280;18191;51.288;12.390;2023-04-05T00:11:01;49040.66;;;-144.47;72.48
31585;BME280;18191;51.288;12.390;2023-04-05T00:15:52;49018.78;;;-144.47;72.90
31585;BME280;18191;51.288;12.390;2023-04-05T00:20:42;49002.88;;;-144.47;72.60
31585;BME280;18191;51.288;12.390;2023-04-05T00:25:33;49004.84;;;-144.47;73.53
31585;BME280;18191;51.288;12.390;2023-04-05T00:30:24;49016.78;;;-144.47;72.65
31585;BME280;18191;51.288;12.390;2023-04-05T00:35:14;49042.66;;;-144.47;73.02
31585;BME280;18191;51.288;12.390;2023-04-05T00:40:05;49056.59;;;-144.47;73.67
31585;BME280;18191;51.288;12.390;2023-04-05T00:44:56;48973.03;;;-144.47;74.30
31585;BME280;18191;51.288;12.390;2023-04-05T00:49:46;48996.91;;;-144.47;73.75
31585;BME280;18191;51.288;12.390;2023-04-05T00:54:36;49044.66;;;-144.47;73.91
31585;BME280;18191;51.288;12.390;2023-04-05T00:59:28;49028.72;;;-144.47;74.06
31585;BME280;18191;51.288;12.390;2023-04-05T01:04:18;48984.97;;;-144.47;73.95
31585;BME280;18191;51.288;12.390;2023-04-05T01:09:13;49008.84;;;-144.47;74.12
31585;BME280;18191;51.288;12.390;2023-04-05T01:14:06;48992.94;;;-144.47;74.14
31585;BME280;18191;51.288;12.390;2023-04-05T01:18:57;49012.81;;;-144.47;74.58
31585;BME280;18191;51.288;12.390;2023-04-05T01:23:52;48992.94;;;-144.47;74.07
31585;BME280;18191;51.288;12.390;2023-04-05T01:29:01;49022.75;;;-144.47;74.68
31585;BME280;18191;51.288;12.390;2023-04-05T01:38:59;49038.69;;;-144.47;74.72
31585;BME280;18191;51.288;12.390;2023-04-05T01:43:51;48992.94;;;-144.47;74.60
31585;BME280;18191;51.288;12.390;2023-04-05T01:48:42;49040.66;;;-144.47;74.83
31585;BME280;18191;51.288;12.390;2023-04-05T01:53:32;48996.91;;;-144.47;75.11
31585;BME280;18191;51.288;12.390;2023-04-05T01:58:22;49058.56;;;-144.47;75.28
31585;BME280;18191;51.288;12.390;2023-04-05T02:03:13;49016.78;;;-144.47;74.93
31585;BME280;18191;51.288;12.390;2023-04-05T02:08:03;48992.94;;;-144.47;74.92
31585;BME280;18191;51.288;12.390;2023-04-05T02:12:53;48994.91;;;-144.47;75.65
31585;BME280;18191;51.288;12.390;2023-04-05T02:17:43;49012.81;;;-144.47;76.17
31585;BME280;18191;51.288;12.390;2023-04-05T02:22:34;49012.81;;;-144.47;76.92
31585;BME280;18191;51.288;12.390;2023-04-05T02:27:25;49032.72;;;-144.47;76.47
31585;BME280;18191;51.288;12.390;2023-04-05T02:32:16;49002.88;;;-144.47;76.31
31585;BME280;18191;51.288;12.390;2023-04-05T02:37:06;49024.75;;;-144.47;76.26
31585;BME280;18191;51.288;12.390;2023-04-05T02:41:56;49016.78;;;-144.47;76.17
31585;BME280;18191;51.288;12.390;2023-04-05T02:46:48;48973.03;;;-144.47;78.06
31585;BME280;18191;51.288;12.390;2023-04-05T02:51:38;48973.03;;;-144.47;78.83
31585;BME280;18191;51.288;12.390;2023-04-05T02:56:28;49020.78;;;-144.47;78.34
31585;BME280;18191;51.288;12.390;2023-04-05T03:01:19;48969.06;;;-144.47;78.38
31585;BME280;18191;51.288;12.390;2023-04-05T03:06:09;48981.00;;;-144.47;77.86
31585;BME280;18191;51.288;12.390;2023-04-05T03:11:00;48973.03;;;-144.47;77.66
31585;BME280;18191;51.288;12.390;2023-04-05T03:15:52;49036.69;;;-144.47;77.87
31585;BME280;18191;51.288;12.390;2023-04-05T03:20:42;49022.75;;;-144.47;77.54
31585;BME280;18191;51.288;12.390;2023-04-05T03:25:34;49066.53;;;-144.47;77.61
31585;BME280;18191;51.288;12.390;2023-04-05T03:30:26;49004.84;;;-144.47;78.06
31585;BME280;18191;51.288;12.390;2023-04-05T03:35:17;49040.66;;;-144.47;78.42
31585;BME280;18191;51.288;12.390;2023-04-05T03:40:08;48996.91;;;-144.47;78.23
31585;BME280;18191;51.288;12.390;2023-04-05T03:44:59;49004.84;;;-144.47;78.71
31585;BME280;18191;51.288;12.390;2023-04-05T03:49:49;48992.94;;;-144.47;78.62
31585;BME280;18191;51.288;12.390;2023-04-05T03:54:40;49054.59;;;-144.47;78.57
31585;BME280;18191;51.288;12.390;2023-04-05T03:59:30;49040.66;;;-144.47;78.02
31585;BME280;18191;51.288;12.390;2023-04-05T04:04:21;48984.97;;;-144.47;77.31
31585;BME280;18191;51.288;12.390;2023-04-05T04:09:11;49004.84;;;-144.47;74.36
31585;BME280;18191;51.288;12.390;2023-04-05T04:14:01;49012.81;;;-144.47;75.23
31585;BME280;18191;51.288;12.390;2023-04-05T04:18:52;49048.63;;;-144.47;74.67
31585;BME280;18191;51.288;12.390;2023-04-05T04:23:43;48996.91;;;-144.47;75.71
31585;BME280;18191;51.288;12.390;2023-04-05T04:28:34;49038.69;;;-144.47;75.44
31585;BME280;18191;51.288;12.390;2023-04-05T04:33:28;49040.66;;;-144.47;75.19
31585;BME280;18191;51.288;12.390;2023-04-05T04:38:18;49026.75;;;-144.47;75.02
31585;BME280;18191;51.288;12.390;2023-04-05T04:43:10;49012.81;;;-144.47;75.28
31585;BME280;18191;51.288;12.390;2023-04-05T04:48:06;48961.09;;;-144.47;75.38
31585;BME280;18191;51.288;12.390;2023-04-05T04:52:57;49036.69;;;-144.47;75.57
31585;BME280;18191;51.288;12.390;2023-04-05T04:57:50;48996.91;;;-144.47;75.80
31585;BME280;18191;51.288;12.390;2023-04-05T05:02:40;49016.78;;;-144.47;74.77
31585;BME280;18191;51.288;12.390;2023-04-05T05:07:31;49056.59;;;-144.47;74.48
31585;BME280;18191;51.288;12.390;2023-04-05T05:12:21;49006.84;;;-144.47;75.29
31585;BME280;18191;51.288;12.390;2023-04-05T05:17:11;48992.94;;;-144.47;74.75
31585;BME280;18191;51.288;12.390;2023-04-05T05:22:01;48994.91;;;-144.47;74.81
31585;BME280;18191;51.288;12.390;2023-04-05T05:26:52;49024.75;;;-144.47;74.35
31585;BME280;18191;51.288;12.390;2023-04-05T05:31:42;49072.50;;;-144.47;74.71
31585;BME280;18191;51.288;12.390;2023-04-05T05:36:33;49010.81;;;-144.47;74.92
31585;BME280;18191;51.288;12.390;2023-04-05T05:41:23;49016.78;;;-144.47;74.14
31585;BME280;18191;51.288;12.390;2023-04-05T05:46:13;48986.97;;;-144.47;73.81
31585;BME280;18191;51.288;12.390;2023-04-05T05:51:04;49034.69;;;-144.47;72.22
31585;BME280;18191;51.288;12.390;2023-04-05T05:55:58;48984.97;;;-144.47;71.24
31585;BME280;18191;51.288;12.390;2023-04-05T06:00:48;49000.88;;;-144.47;70.05
31585;BME280;18191;51.288;12.390;2023-04-05T06:05:40;49004.84;;;-144.47;67.76
31585;BME280;18191;51.288;12.390;2023-04-05T06:10:30;48988.94;;;-144.47;66.70
31585;BME280;18191;51.288;12.390;2023-04-05T06:15:20;49008.84;;;-144.47;65.01
31585;BME280;18191;51.288;12.390;2023-04-05T06:20:10;48988.94;;;-144.47;63.68
31585;BME280;18191;51.288;12.390;2023-04-05T06:25:01;49002.88;;;-144.47;62.10
31585;BME280;18191;51.288;12.390;2023-04-05T06:29:51;49022.75;;;-144.47;63.24
31585;BME280;18191;51.288;12.390;2023-04-05T06:34:41;48996.91;;;-144.47;61.13
31585;BME280;18191;51.288;12.390;2023-04-05T06:39:31;49012.81;;;-144.47;63.79
31585;BME280;18191;51.288;12.390;2023-04-05T06:44:22;49008.84;;;-144.47;61.05
31585;BME280;18191;51.288;12.390;2023-04-05T06:49:12;48992.94;;;-144.47;60.61
31585;BME280;18191;51.288;12.390;2023-04-05T06:54:02;48984.97;;;-144.47;61.59
31585;BME280;18191;51.288;12.390;2023-04-05T06:58:52;48981.00;;;-144.47;61.01
31585;BME280;18191;51.288;12.390;2023-04-05T07:03:44;48992.94;;;-144.47;58.41
31585;BME280;18191;51.288;12.390;2023-04-05T07:08:34;49034.69;;;-144.47;58.75
31585;BME280;18191;51.288;12.390;2023-04-05T07:13:25;48931.25;;;-144.47;58.35
31585;BME280;18191;51.288;12.390;2023-04-05T07:18:15;48996.91;;;-144.47;57.79
31585;BME280;18191;51.288;12.390;2023-04-05T07:23:06;48973.03;;;-144.47;58.28
31585;BME280;18191;51.288;12.390;2023-04-05T07:27:58;49016.78;;;-144.47;58.17
31585;BME280;18191;51.288;12.390;2023-04-05T07:32:48;48977.00;;;-144.47;56.89
31585;BME280;18191;51.288;12.390;2023-04-05T07:37:39;48953.13;;;-144.47;55.16
31585;BME280;18191;51.288;12.390;2023-04-05T07:42:29;48957.13;;;-144.47;57.39
31585;BME280;18191;51.288;12.390;2023-04-05T07:47:21;48981.00;;;-144.47;56.47
31585;BME280;18191;51.288;12.390;2023-04-05T07:52:11;48977.00;;;-144.47;56.01
31585;BME280;18191;51.288;12.390;2023-04-05T07:57:02;48973.03;;;-144.47;56.22
31585;BME280;18191;51.288;12.390;2023-04-05T08:01:52;49012.81;;;-144.47;56.60
31585;BME280;18191;51.288;12.390;2023-04-05T08:06:42;48973.03;;;-144.47;56.64
31585;BME280;18191;51.288;12.390;2023-04-05T08:11:32;49016.78;;;-144.47;55.80
31585;BME280;18191;51.288;12.390;2023-04-05T08:16:23;48961.09;;;-144.47;56.24
31585;BME280;18191;51.288;12.390;2023-04-05T08:21:13;48984.97;;;-144.47;53.80
31585;BME280;18191;51.288;12.390;2023-04-05T08:26:03;48981.00;;;-144.47;52.95
31585;BME280;18191;51.288;12.390;2023-04-05T08:30:54;48965.06;;;-144.47;50.50
31585;BME280;18191;51.288;12.390;2023-04-05T08:35:45;48988.94;;;-144.47;50.93
31585;BME280;18191;51.288;12.390;2023-04-05T08:40:39;48988.94;;;-144.47;51.39
31585;BME280;18191;51.288;12.390;2023-04-05T08:45:31;49020.78;;;-144.47;47.81
31585;BME280;18191;51.288;12.390;2023-04-05T08:50:23;48981.00;;;-144.47;46.19
31585;BME280;18191;51.288;12.390;2023-04-05T08:55:13;48981.00;;;-144.47;42.03
31585;BME280;18191;51.288;12.390;2023-04-05T09:00:04;48961.09;;;-144.47;40.53
31585;BME280;18191;51.288;12.390;2023-04-05T09:04:58;48996.91;;;-144.47;39.84
31585;BME280;18191;51.288;12.390;2023-04-05T09:09:50;48969.06;;;-144.47;40.36
31585;BME280;18191;51.288;12.390;2023-04-05T09:14:41;48981.00;;;-144.47;41.48
31585;BME280;18191;51.288;12.390;2023-04-05T09:19:32;48945.19;;;-144.47;41.86
31585;BME280;18191;51.288;12.390;2023-04-05T09:24:35;48981.00;;;-144.47;39.43
31585;BME280;18191;51.288;12.390;2023-04-05T09:29:30;48929.28;;;-144.47;38.61
31585;BME280;18191;51.288;12.390;2023-04-05T09:34:20;48971.03;;;-144.47;39.16
31585;BME280;18191;51.288;12.390;2023-04-05T09:39:11;49028.72;;;-144.47;38.22
31585;BME280;18191;51.288;12.390;2023-04-05T09:44:01;48949.16;;;-144.47;38.58
31585;BME280;18191;51.288;12.390;2023-04-05T09:48:51;48889.50;;;-144.47;38.06
31585;BME280;18191;51.288;12.390;2023-04-05T09:54:01;48963.09;;;-144.47;38.24
31585;BME280;18191;51.288;12.390;2023-04-05T09:58:51;48959.09;;;-144.47;37.19
31585;BME280;18191;51.288;12.390;2023-04-05T10:03:46;48929.28;;;-144.47;37.11
31585;BME280;18191;51.288;12.390;2023-04-05T10:08:36;48951.16;;;-144.47;37.08
31585;BME280;18191;51.288;12.390;2023-04-05T10:13:27;48961.09;;;-144.47;36.18
31585;BME280;18191;51.288;12.390;2023-04-05T10:18:17;48971.03;;;-144.47;36.77
31585;BME280;18191;51.288;12.390;2023-04-05T10:23:16;48957.13;;;-144.47;35.61
31585;BME280;18191;51.288;12.390;2023-04-05T10:28:13;48945.19;;;-144.47;37.14
31585;BME280;18191;51.288;12.390;2023-04-05T10:33:25;48947.16;;;-144.47;35.84
31585;BME280;18191;51.288;12.390;2023-04-05T10:38:22;48943.19;;;-144.47;35.09
31585;BME280;18191;51.288;12.390;2023-04-05T10:43:14;48933.25;;;-144.47;34.86
31585;BME280;18191;51.288;12.390;2023-04-05T10:48:15;48929.28;;;-144.47;35.28
31585;BME280;18191;51.288;12.390;2023-04-05T10:53:08;48933.25;;;-144.47;34.39
31585;BME280;18191;51.288;12.390;2023-04-05T10:57:58;48982.97;;;-144.47;33.94
31585;BME280;18191;51.288;12.390;2023-04-05T11:02:52;48949.16;;;-144.47;34.00
31585;BME280;18191;51.288;12.390;2023-04-05T11:07:43;48893.47;;;-144.47;34.16
31585;BME280;18191;51.288;12.390;2023-04-05T11:17:36;48925.28;;;-144.47;32.41
31585;BME280;18191;51.288;12.390;2023-04-05T11:22:27;48905.41;;;-144.47;32.49
31585;BME280;18191;51.288;12.390;2023-04-05T11:27:28;48923.31;;;-144.47;33.37
31585;BME280;18191;51.288;12.390;2023-04-05T11:32:18;48917.34;;;-144.47;32.74
31585;BME280;18191;51.288;12.390;2023-04-05T11:37:09;48921.31;;;-144.47;31.25
31585;BME280;18191;51.288;12.390;2023-04-05T11:42:01;48891.47;;;-144.47;31.04
31585;BME280;18191;51.288;12.390;2023-04-05T11:46:52;48893.47;;;-144.47;31.70
31585;BME280;18191;51.288;12.390;2023-04-05T11:51:42;48937.22;;;-144.47;30.82
31585;BME280;18191;51.288;12.390;2023-04-05T11:56:33;48945.19;;;-144.47;29.92
31585;BME280;18191;51.288;12.390;2023-04-05T12:01:23;48939.22;;;-144.47;30.05
31585;BME280;18191;51.288;12.390;2023-04-05T12:06:13;48969.06;;;-144.47;31.99
31585;BME280;18191;51.288;12.390;2023-04-05T12:11:05;48923.31;;;-144.47;31.13
31585;BME280;18191;51.288;12.390;2023-04-05T12:15:56;48893.47;;;-144.47;29.79
31585;BME280;18191;51.288;12.390;2023-04-05T12:20:47;48901.41;;;-144.47;32.36
31585;BME280;18191;51.288;12.390;2023-04-05T12:25:37;48937.22;;;-144.47;31.12
31585;BME280;18191;51.288;12.390;2023-04-05T12:30:27;48945.19;;;-144.47;31.44
31585;BME280;18191;51.288;12.390;2023-04-05T12:35:28;48921.31;;;-144.47;34.62
31585;BME280;18191;51.288;12.390;2023-04-05T12:40:22;48945.19;;;-144.47;33.08
31585;BME280;18191;51.288;12.390;2023-04-05T12:45:13;48931.25;;;-144.47;33.98
31585;BME280;18191;51.288;12.390;2023-04-05T12:50:10;48917.34;;;-144.47;34.29
31585;BME280;18191;51.288;12.390;2023-04-05T12:55:00;48949.16;;;-144.47;34.52
31585;BME280;18191;51.288;12.390;2023-04-05T12:59:51;48939.22;;;-144.47;34.68
31585;BME280;18191;51.288;12.390;2023-04-05T13:04:41;48929.28;;;-144.47;35.46
31585;BME280;18191;51.288;12.390;2023-04-05T13:09:31;48945.19;;;-144.47;34.33
31585;BME280;18191;51.288;12.390;2023-04-05T13:14:21;48933.25;;;-144.47;34.98
31585;BME280;18191;51.288;12.390;2023-04-05T13:19:12;48897.44;;;-144.47;34.29
31585;BME280;18191;51.288;12.390;2023-04-05T13:24:02;48901.41;;;-144.47;33.34
31585;BME280;18191;51.288;12.390;2023-04-05T13:28:52;48899.44;;;-144.47;33.02
31585;BME280;18191;51.288;12.390;2023-04-05T13:33:42;48937.22;;;-144.47;34.40
31585;BME280;18191;51.288;12.390;2023-04-05T13:38:32;48925.28;;;-144.47;34.01
31585;BME280;18191;51.288;12.390;2023-04-05T13:43:23;48953.13;;;-144.47;34.31
31585;BME280;18191;51.288;12.390;2023-04-05T13:48:13;48981.00;;;-144.47;34.53
31585;BME280;18191;51.288;12.390;2023-04-05T13:53:03;48921.31;;;-144.47;34.62
31585;BME280;18191;51.288;12.390;2023-04-05T13:57:53;48965.06;;;-144.47;33.59
31585;BME280;18191;51.288;12.390;2023-04-05T14:02:44;48897.44;;;-144.47;32.36
31585;BME280;18191;51.288;12.390;2023-04-05T14:07:35;48899.44;;;-144.47;31.91
31585;BME280;18191;51.288;12.390;2023-04-05T14:12:26;48897.44;;;-144.47;30.73
31585;BME280;18191;51.288;12.390;2023-04-05T14:17:16;48885.50;;;-144.47;31.56
31585;BME280;18191;51.288;12.390;2023-04-05T14:22:06;48909.38;;;-144.47;30.95
31585;BME280;18191;51.288;12.390;2023-04-05T14:26:57;48929.28;;;-144.47;29.80
31585;BME280;18191;51.288;12.390;2023-04-05T14:31:47;48925.28;;;-144.47;30.66
31585;BME280;18191;51.288;12.390;2023-04-05T14:36:37;48913.34;;;-144.47;29.99
31585;BME280;18191;51.288;12.390;2023-04-05T14:41:27;48837.78;;;-144.47;30.44
31585;BME280;18191;51.288;12.390;2023-04-05T14:46:18;48893.47;;;-144.47;29.71
31585;BME280;18191;51.288;12.390;2023-04-05T14:51:08;48915.34;;;-144.47;30.83
31585;BME280;18191;51.288;12.390;2023-04-05T14:55:58;48905.41;;;-144.47;31.29
31585;BME280;18191;51.288;12.390;2023-04-05T15:00:49;48917.34;;;-144.47;32.44
31585;BME280;18191;51.288;12.390;2023-04-05T15:05:39;48945.19;;;-144.47;32.37
31585;BME280;18191;51.288;12.390;2023-04-05T15:10:29;48925.28;;;-144.47;33.21
31585;BME280;18191;51.288;12.390;2023-04-05T15:15:20;48943.19;;;-144.47;32.81
31585;BME280;18191;51.288;12.390;2023-04-05T15:20:10;48931.25;;;-144.47;33.17
31585;BME280;18191;51.288;12.390;2023-04-05T15:25:00;48917.34;;;-144.47;33.02
31585;BME280;18191;51.288;12.390;2023-04-05T15:29:50;48905.41;;;-144.47;31.39
31585;BME280;18191;51.288;12.390;2023-04-05T15:34:40;48919.31;;;-144.47;32.32
31585;BME280;18191;51.288;12.390;2023-04-05T15:39:31;48885.50;;;-144.47;32.81
31585;BME280;18191;51.288;12.390;2023-04-05T15:44:21;48907.38;;;-144.47;30.56
31585;BME280;18191;51.288;12.390;2023-04-05T15:49:11;48901.41;;;-144.47;31.79
31585;BME280;18191;51.288;12.390;2023-04-05T15:54:02;48919.31;;;-144.47;34.86
31585;BME280;18191;51.288;12.390;2023-04-05T15:58:52;48925.28;;;-144.47;34.47
31585;BME280;18191;51.288;12.390;2023-04-05T16:03:43;48927.28;;;-144.47;32.87
31585;BME280;18191;51.288;12.390;2023-04-05T16:08:33;48951.16;;;-144.47;33.15
31585;BME280;18191;51.288;12.390;2023-04-05T16:13:23;48917.34;;;-144.47;34.28
31585;BME280;18191;51.288;12.390;2023-04-05T16:18:14;48913.34;;;-144.47;35.16
31585;BME280;18191;51.288;12.390;2023-04-05T16:23:08;48941.19;;;-144.47;34.04
31585;BME280;18191;51.288;12.390;2023-04-05T16:27:58;48941.19;;;-144.47;34.18
31585;BME280;18191;51.288;12.390;2023-04-05T16:32:49;48949.16;;;-144.47;34.31
31585;BME280;18191;51.288;12.390;2023-04-05T16:37:40;48981.00;;;-144.47;34.55
31585;BME280;18191;51.288;12.390;2023-04-05T16:42:31;48925.28;;;-144.47;35.57
31585;BME280;18191;51.288;12.390;2023-04-05T16:47:22;48929.28;;;-144.47;34.05
31585;BME280;18191;51.288;12.390;2023-04-05T16:52:12;48973.03;;;-144.47;35.74
31585;BME280;18191;51.288;12.390;2023-04-05T16:57:02;48943.19;;;-144.47;35.69
31585;BME280;18191;51.288;12.390;2023-04-05T17:01:52;48945.19;;;-144.47;37.49
31585;BME280;18191;51.288;12.390;2023-04-05T17:06:43;48949.16;;;-144.47;35.42
31585;BME280;18191;51.288;12.390;2023-04-05T17:11:33;48949.16;;;-144.47;36.96
31585;BME280;18191;51.288;12.390;2023-04-05T17:16:23;48961.09;;;-144.47;35.77
31585;BME280;18191;51.288;12.390;2023-04-05T17:21:14;48933.25;;;-144.47;34.60
31585;BME280;18191;51.288;12.390;2023-04-05T17:26:04;48949.16;;;-144.47;35.82
31585;BME280;18191;51.288;12.390;2023-04-05T17:30:55;48913.34;;;-144.47;38.35
31585;BME280;18191;51.288;12.390;2023-04-05T17:35:45;48897.44;;;-144.47;37.83
31585;BME280;18191;51.288;12.390;2023-04-05T17:40:36;48961.09;;;-144.47;37.76
31585;BME280;18191;51.288;12.390;2023-04-05T17:45:27;48961.09;;;-144.47;39.14
31585;BME280;18191;51.288;12.390;2023-04-05T17:50:17;48965.06;;;-144.47;41.46
31585;BME280;18191;51.288;12.390;2023-04-05T17:55:07;48975.03;;;-144.47;42.05
31585;BME280;18191;51.288;12.390;2023-04-05T17:59:58;48937.22;;;-144.47;42.37
31585;BME280;18191;51.288;12.390;2023-04-05T18:04:48;48937.22;;;-144.47;41.00
31585;BME280;18191;51.288;12.390;2023-04-05T18:09:39;48957.13;;;-144.47;41.02
31585;BME280;18191;51.288;12.390;2023-04-05T18:14:31;48941.19;;;-144.47;41.27
31585;BME280;18191;51.288;12.390;2023-04-05T18:19:21;48963.09;;;-144.47;40.82
31585;BME280;18191;51.288;12.390;2023-04-05T18:24:13;48941.19;;;-144.47;43.10
31585;BME280;18191;51.288;12.390;2023-04-05T18:29:03;48957.13;;;-144.47;44.71
31585;BME280;18191;51.288;12.390;2023-04-05T18:33:53;48961.09;;;-144.47;43.21
31585;BME280;18191;51.288;12.390;2023-04-05T18:38:44;48953.13;;;-144.47;45.19
31585;BME280;18191;51.288;12.390;2023-04-05T18:43:34;48977.00;;;-144.47;48.42
31585;BME280;18191;51.288;12.390;2023-04-05T18:48:25;48967.06;;;-144.47;43.35
31585;BME280;18191;51.288;12.390;2023-04-05T18:53:15;48973.03;;;-144.47;44.34
31585;BME280;18191;51.288;12.390;2023-04-05T18:58:05;48957.13;;;-144.47;45.02
31585;BME280;18191;51.288;12.390;2023-04-05T19:02:56;48945.19;;;-144.47;46.99
31585;BME280;18191;51.288;12.390;2023-04-05T19:07:46;48981.00;;;-144.47;50.24
31585;BME280;18191;51.288;12.390;2023-04-05T19:12:36;48988.94;;;-144.47;52.66
31585;BME280;18191;51.288;12.390;2023-04-05T19:17:26;48943.19;;;-144.47;48.58
31585;BME280;18191;51.288;12.390;2023-04-05T19:22:16;48988.94;;;-144.47;51.02
31585;BME280;18191;51.288;12.390;2023-04-05T19:27:06;48925.28;;;-144.47;54.34
31585;BME280;18191;51.288;12.390;2023-04-05T19:31:57;49000.88;;;-144.47;55.55
31585;BME280;18191;51.288;12.390;2023-04-05T19:36:47;48975.03;;;-144.47;56.29
31585;BME280;18191;51.288;12.390;2023-04-05T19:41:40;48969.06;;;-144.47;56.32
31585;BME280;18191;51.288;12.390;2023-04-05T19:46:30;48959.09;;;-144.47;58.99
31585;BME280;18191;51.288;12.390;2023-04-05T19:51:22;48965.06;;;-144.47;59.45
31585;BME280;18191;51.288;12.390;2023-04-05T19:56:20;48977.00;;;-144.47;60.27
31585;BME280;18191;51.288;12.390;2023-04-05T20:01:10;48996.91;;;-144.47;60.39
31585;BME280;18191;51.288;12.390;2023-04-05T20:06:09;48939.22;;;-144.47;60.60
31585;BME280;18191;51.288;12.390;2023-04-05T20:10:59;48981.00;;;-144.47;61.00
31585;BME280;18191;51.288;12.390;2023-04-05T20:15:50;48933.25;;;-144.47;61.84
31585;BME280;18191;51.288;12.390;2023-04-05T20:20:41;48992.94;;;-144.47;62.41
31585;BME280;18191;51.288;12.390;2023-04-05T20:25:42;49000.88;;;-144.47;62.62
31585;BME280;18191;51.288;12.390;2023-04-05T20:30:33;49006.84;;;-144.47;63.68
31585;BME280;18191;51.288;12.390;2023-04-05T20:35:29;48988.94;;;-144.47;64.61
31585;BME280;18191;51.288;12.390;2023-04-05T20:40:20;48963.09;;;-144.47;64.91
31585;BME280;18191;51.288;12.390;2023-04-05T20:45:12;48963.09;;;-144.47;64.59
31585;BME280;18191;51.288;12.390;2023-04-05T20:50:02;48961.09;;;-144.47;65.05
31585;BME280;18191;51.288;12.390;2023-04-05T20:54:52;48988.94;;;-144.47;65.29
31585;BME280;18191;51.288;12.390;2023-04-05T20:59:43;48982.97;;;-144.47;66.85
31585;BME280;18191;51.288;12.390;2023-04-05T21:04:33;48973.03;;;-144.47;64.97
31585;BME280;18191;51.288;12.390;2023-04-05T21:09:23;48981.00;;;-144.47;65.40
31585;BME280;18191;51.288;12.390;2023-04-05T21:14:14;48984.97;;;-144.47;66.43
31585;BME280;18191;51.288;12.390;2023-04-05T21:19:05;49000.88;;;-144.47;66.38
31585;BME280;18191;51.288;12.390;2023-04-05T21:23:55;48977.00;;;-144.47;66.54
31585;BME280;18191;51.288;12.390;2023-04-05T21:28:45;48967.06;;;-144.47;66.71
31585;BME280;18191;51.288;12.390;2023-04-05T21:33:35;48965.06;;;-144.47;66.78
31585;BME280;18191;51.288;12.390;2023-04-05T21:38:25;48965.06;;;-144.47;67.73
31585;BME280;18191;51.288;12.390;2023-04-05T21:43:16;48992.94;;;-144.47;67.61
31585;BME280;18191;51.288;12.390;2023-04-05T21:48:06;48953.13;;;-144.47;67.69
31585;BME280;18191;51.288;12.390;2023-04-05T21:52:56;48981.00;;;-144.47;68.41
31585;BME280;18191;51.288;12.390;2023-04-05T21:57:46;48957.13;;;-144.47;68.85
31585;BME280;18191;51.288;12.390;2023-04-05T22:02:37;48953.13;;;-144.47;68.74
31585;BME280;18191;51.288;12.390;2023-04-05T22:07:27;48943.19;;;-144.47;69.28
31585;BME280;18191;51.288;12.390;2023-04-05T22:12:18;48971.03;;;-144.47;69.82
31585;BME280;18191;51.288;12.390;2023-04-05T22:17:10;48984.97;;;-144.47;69.74
31585;BME280;18191;51.288;12.390;2023-04-05T22:22:00;49008.84;;;-144.47;70.50
31585;BME280;18191;51.288;12.390;2023-04-05T22:26:51;48984.97;;;-144.47;70.40
31585;BME280;18191;51.288;12.390;2023-04-05T22:31:42;48996.91;;;-144.47;69.78
31585;BME280;18191;51.288;12.390;2023-04-05T22:36:32;48984.97;;;-144.47;69.95
31585;BME280;18191;51.288;12.390;2023-04-05T22:41:22;48961.09;;;-144.47;69.38
31585;BME280;18191;51.288;12.390;2023-04-05T22:46:12;48973.03;;;-144.47;69.74
31585;BME280;18191;51.288;12.390;2023-04-05T22:51:02;48973.03;;;-144.47;70.07
31585;BME280;18191;51.288;12.390;2023-04-05T22:55:53;48945.19;;;-144.47;70.97
31585;BME280;18191;51.288;12.390;2023-04-05T23:00:43;48969.06;;;-144.47;70.83
31585;BME280;18191;51.288;12.390;2023-04-05T23:05:33;49004.84;;;-144.47;70.83
31585;BME280;18191;51.288;12.390;2023-04-05T23:10:25;49016.78;;;-144.47;70.96
31585;BME280;18191;51.288;12.390;2023-04-05T23:15:15;49006.84;;;-144.47;71.22
31585;BME280;18191;51.288;12.390;2023-04-05T23:20:06;49008.84;;;-144.47;70.94
31585;BME280;18191;51.288;12.390;2023-04-05T23:24:58;48969.06;;;-144.47;71.70
31585;BME280;18191;51.288;12.390;2023-04-05T23:29:53;48984.97;;;-144.47;72.10
31585;BME280;18191;51.288;12.390;2023-04-05T23:34:43;48971.03;;;-144.47;72.19
31585;BME280;18191;51.288;12.390;2023-04-05T23:39:34;49028.72;;;-144.47;72.16
31585;BME280;18191;51.288;12.390;2023-04-05T23:44:24;48982.97;;;-144.47;72.44
31585;BME280;18191;51.288;12.390;2023-04-05T23:49:14;48959.09;;;-144.47;71.85
31585;BME280;18191;51.288;12.390;2023-04-05T23:54:04;48957.13;;;-144.47;72.62
31585;BME280;18191;51.288;12.390;2023-04-05T23:58:55;48969.06;;;-144.47;72.00
